Tropical Cyclones
[Index]
Main Index Home Page Stock Weather Photos Extreme Storms Discussion Storm News and Storm Chasing Reports Tropical Cyclones / Hurricanes / Typhoons Weather Data and Links Wild Fires / Bushfires Weather Observation Techniques Weather Picture Catalogue Tornado Pictures and Reports Stock Video Footage and DVDs for sale
Season 1955-1956 Tropical Cyclone 195611 Track Map
Season 1955-1956 Summaries: [BoM-AU] [JTWC-AU] [JTWC-SIO] [JTWC-SPAC] [JTWC-SH]
<<- Previous TC | JTWC 1955-1956 Season | Next TC ->>

click for intensity scale information  Lat/long Grid: Show Hide

 Date Labels: Show Hide

Joint Typhoon Warning Centre Cyclone Data

Name: 195611
Number: 253 / 5611

17 Jan 1956 00:00 UTC to 28 Jan 1956 18:00 UTC

    date/time    lat    long     hPa   cat  kts
1956-01-17 00   17.1   139.7                              
1956-01-17 06   17.2   139.9                              
1956-01-17 12   17.2   140.0                              
1956-01-17 18   17.2   140.2                              
1956-01-18 00   17.2   140.3                              
1956-01-18 06   17.3   140.8                              
1956-01-18 12   17.3   141.4                              
1956-01-18 18   17.3   141.4                              
1956-01-19 00   17.3   141.8                              
1956-01-19 06   17.7   143.2                              
1956-01-19 12   18.3   144.6                              
1956-01-19 18   19.1   145.6                              
1956-01-20 00   19.8   146.6                              
1956-01-20 06   20.7   147.8                              
1956-01-20 12   21.4   148.8                              
1956-01-20 18   20.3   149.5                              
1956-01-21 00   19.0   150.1                              
1956-01-21 06   18.4   150.6                              
1956-01-21 12   18.2   151.2                              
1956-01-21 18   18.7   151.7                              
1956-01-22 00   19.0   152.3                              
1956-01-22 06   19.1   151.5                              
1956-01-22 12   18.9   150.6                              
1956-01-22 18   18.3   150.0                              
1956-01-23 00   17.9   149.7                              
1956-01-23 06   17.6   149.9                              
1956-01-23 12   17.4   150.3                              
1956-01-23 18   17.1   150.6                              
1956-01-24 00   16.9   151.2                              
1956-01-24 06   17.0   152.6                              
1956-01-24 12   17.6   153.7                              
1956-01-24 18   18.9   154.5                              
1956-01-25 00   19.9   155.1                              
1956-01-25 06   20.7   155.6                              
1956-01-25 12   21.3   156.2                              
1956-01-25 18   21.8   156.7                              
1956-01-26 00   22.4   157.3                              
1956-01-26 06   23.4   158.3                              
1956-01-26 12   24.5   159.3                              
1956-01-26 18   25.8   160.2                              
1956-01-27 00   26.9   161.1                              
1956-01-27 06   27.7   161.3                              
1956-01-27 12   28.5   161.2                              
1956-01-27 18   29.3   161.0                              
1956-01-28 00   30.2   160.9                              
1956-01-28 06   32.0   161.1                              
1956-01-28 12   34.0   161.7                              
1956-01-28 18   35.6   163.2                              
Winds are 1-min average.

Tropical cyclone tracks developed by Michael Bath using data from the Joint Typhoon Warning Centre Best Tracks and Google Maps.


[Australian Severe Weather index] [Copyright Notice] [Email Contacts] [Search This Site] [Privacy Policy]
Document: tropical_cyclone_195611.htm Updated: 18 September 2016